createdAt,value
2023-05-20T00:00:32.329Z,8.45
2023-05-20T00:03:01.382Z,7.93
2023-05-20T00:05:30.375Z,8.13
2023-05-20T00:08:00.617Z,7.28
2023-05-20T00:10:27.585Z,9.57
2023-05-20T00:12:56.649Z,7.72
2023-05-20T00:15:23.407Z,6.28
2023-05-20T00:17:52.402Z,9.95
2023-05-20T00:20:22.236Z,13.55
2023-05-20T00:22:51.091Z,12.52
2023-05-20T00:25:17.757Z,6.78
2023-05-20T00:27:47.352Z,11.98
2023-05-20T00:30:16.560Z,7.90
2023-05-20T00:32:43.177Z,11.35
2023-05-20T00:35:13.112Z,7.82
2023-05-20T00:37:39.823Z,6.38
2023-05-20T00:40:07.401Z,7.32
2023-05-20T00:42:34.054Z,11.75
2023-05-20T00:45:03.153Z,8.70
2023-05-20T00:47:34.482Z,11.95
2023-05-20T00:50:04.044Z,12.57
2023-05-20T00:52:32.784Z,12.88
2023-05-20T00:55:00.034Z,12.10
2023-05-20T00:57:28.910Z,10.02
2023-05-20T01:00:00.468Z,9.55
2023-05-20T01:02:27.624Z,10.15
2023-05-20T01:04:56.673Z,10.63
2023-05-20T01:07:23.920Z,6.72
2023-05-20T01:09:54.496Z,9.15
2023-05-20T01:12:30.615Z,7.30
2023-05-20T01:15:07.464Z,7.28
2023-05-20T01:17:49.962Z,13.63
2023-05-20T01:20:18.945Z,9.63
2023-05-20T01:22:57.033Z,11.77
2023-05-20T01:25:27.573Z,10.27
2023-05-20T01:28:03.577Z,12.40
2023-05-20T01:30:37.213Z,7.43
2023-05-20T01:33:11.332Z,12.80
2023-05-20T01:35:41.481Z,10.32
2023-05-20T01:38:08.630Z,9.43
2023-05-20T01:40:36.091Z,7.72
2023-05-20T01:43:03.518Z,9.70
2023-05-20T01:45:30.198Z,12.20
2023-05-20T01:47:59.323Z,12.65
2023-05-20T01:50:26.861Z,9.18
2023-05-20T01:52:56.026Z,12.20
2023-05-20T01:55:25.042Z,9.82
2023-05-20T01:57:51.786Z,6.63
2023-05-20T02:00:18.368Z,9.57
2023-05-20T02:02:45.123Z,12.48
2023-05-20T02:05:12.153Z,7.68
2023-05-20T02:07:38.918Z,12.57
2023-05-20T02:10:06.396Z,11.13
2023-05-20T02:12:33.045Z,10.23
2023-05-20T02:14:59.643Z,11.32
2023-05-20T02:17:26.892Z,7.00
2023-05-20T02:19:55.845Z,13.73
2023-05-20T02:22:22.456Z,8.10
2023-05-20T02:24:49.099Z,9.82
2023-05-20T02:27:15.715Z,12.20
2023-05-20T02:29:44.287Z,9.80
2023-05-20T02:32:11.346Z,14.05
2023-05-20T02:34:37.986Z,9.95
2023-05-20T02:37:05.251Z,9.52
2023-05-20T02:39:32.078Z,10.88
2023-05-20T02:42:01.249Z,7.78
2023-05-20T02:44:30.283Z,6.63
2023-05-20T02:47:01.631Z,11.30
2023-05-20T02:49:28.192Z,9.40
2023-05-20T02:51:59.397Z,13.13
2023-05-20T02:54:28.266Z,8.65
2023-05-20T02:56:54.875Z,17.13
2023-05-20T02:59:21.949Z,13.05
2023-05-20T03:01:51.055Z,12.43
2023-05-20T03:04:19.362Z,12.45
2023-05-20T03:06:46.572Z,8.23
2023-05-20T03:09:14.280Z,8.82
2023-05-20T03:11:41.037Z,9.82
2023-05-20T03:14:07.672Z,9.45
2023-05-20T03:16:35.475Z,9.52
2023-05-20T03:19:02.693Z,12.95
2023-05-20T03:21:32.553Z,11.35
2023-05-20T03:23:59.223Z,6.53
2023-05-20T03:26:26.030Z,6.90
2023-05-20T03:28:57.342Z,7.30
2023-05-20T03:31:24.061Z,7.90
2023-05-20T03:33:51.064Z,7.20
2023-05-20T03:36:17.759Z,11.15
2023-05-20T03:38:46.787Z,10.00
2023-05-20T03:41:15.737Z,10.05
2023-05-20T03:43:42.449Z,13.70
2023-05-20T03:46:09.133Z,12.05
2023-05-20T03:48:35.740Z,11.52
2023-05-20T03:51:04.905Z,9.68
2023-05-20T03:53:31.579Z,9.23
2023-05-20T03:56:01.680Z,8.55
2023-05-20T03:58:31.343Z,12.73
2023-05-20T04:00:58.391Z,12.80
2023-05-20T04:03:25.179Z,11.88
2023-05-20T04:05:52.133Z,8.27
2023-05-20T04:08:18.961Z,12.68
2023-05-20T04:10:46.474Z,8.45
2023-05-20T04:13:16.508Z,9.77
2023-05-20T04:15:43.186Z,8.25
2023-05-20T04:18:10.449Z,9.82
2023-05-20T04:20:37.108Z,10.75
2023-05-20T04:23:03.714Z,9.52
2023-05-20T04:25:30.398Z,14.25
2023-05-20T04:27:57.906Z,15.25
2023-05-20T04:30:27.298Z,11.75
2023-05-20T04:32:54.834Z,7.03
2023-05-20T04:35:21.651Z,8.27
2023-05-20T04:37:48.701Z,11.48
2023-05-20T04:40:15.445Z,10.57
2023-05-20T04:42:42.113Z,9.07
2023-05-20T04:45:09.207Z,8.63
2023-05-20T04:47:39.004Z,6.85
2023-05-20T04:50:11.293Z,12.18
2023-05-20T04:52:47.189Z,18.20
2023-05-20T04:55:14.167Z,11.68
2023-05-20T04:57:43.868Z,13.25
2023-05-20T05:00:12.670Z,11.88
2023-05-20T05:02:39.623Z,11.25
2023-05-20T05:05:06.879Z,9.48
2023-05-20T05:07:33.597Z,7.65
2023-05-20T05:10:00.203Z,10.05
2023-05-20T05:12:31.697Z,7.93
2023-05-20T05:14:58.881Z,6.95
2023-05-20T05:17:28.860Z,11.40
2023-05-20T05:19:55.943Z,5.05
2023-05-20T05:22:22.651Z,5.60
2023-05-20T05:24:49.249Z,7.38
2023-05-20T05:27:15.998Z,6.63
2023-05-20T05:29:42.683Z,7.32
2023-05-20T05:32:14.403Z,5.70
2023-05-20T05:34:43.470Z,8.00
2023-05-20T05:37:10.084Z,7.82
2023-05-20T05:39:37.879Z,6.95
2023-05-20T05:42:05.116Z,8.23
2023-05-20T05:44:31.967Z,6.45
2023-05-20T05:46:58.683Z,15.88
2023-05-20T05:49:27.883Z,6.38
2023-05-20T05:51:54.566Z,8.30
2023-05-20T05:54:21.404Z,8.63
2023-05-20T05:56:50.383Z,10.98
2023-05-20T05:59:17.402Z,6.07
2023-05-20T06:01:44.053Z,8.05
2023-05-20T06:04:10.935Z,6.90
2023-05-20T06:06:40.993Z,7.05
2023-05-20T06:09:07.847Z,14.07
2023-05-20T06:11:34.547Z,4.68
2023-05-20T06:14:02.095Z,6.25
2023-05-20T06:16:28.753Z,6.05
2023-05-20T06:18:59.699Z,5.70
2023-05-20T06:21:28.478Z,4.82
2023-05-20T06:23:55.147Z,6.40
2023-05-20T06:26:22.926Z,8.43
2023-05-20T06:28:52.089Z,8.90
2023-05-20T06:31:21.452Z,6.05
2023-05-20T06:33:48.575Z,7.32
2023-05-20T06:36:15.214Z,4.88
2023-05-20T06:38:41.805Z,5.20
2023-05-20T06:41:08.692Z,7.75
2023-05-20T06:43:37.752Z,8.13
2023-05-20T06:46:04.870Z,5.45
2023-05-20T06:48:32.075Z,4.72
2023-05-20T06:50:58.748Z,4.90
2023-05-20T06:53:28.020Z,9.05
2023-05-20T06:56:00.617Z,5.95
2023-05-20T06:58:28.020Z,5.45
2023-05-20T07:00:55.026Z,6.85
2023-05-20T07:03:21.799Z,7.53
2023-05-20T07:05:53.259Z,5.15
2023-05-20T07:08:22.841Z,5.20
2023-05-20T07:10:49.421Z,10.73
2023-05-20T07:13:23.972Z,5.32
2023-05-20T07:15:50.774Z,6.03
2023-05-20T07:18:17.549Z,6.43
2023-05-20T07:20:45.000Z,4.90
2023-05-20T07:23:12.073Z,5.65
2023-05-20T07:25:39.903Z,6.80
2023-05-20T07:28:09.320Z,4.72
2023-05-20T07:30:36.084Z,4.70
2023-05-20T07:33:05.308Z,4.43
2023-05-20T07:35:34.561Z,6.90
2023-05-20T07:38:01.396Z,5.13
2023-05-20T07:40:29.150Z,4.63
2023-05-20T07:42:55.805Z,4.38
2023-05-20T07:45:22.526Z,5.70
2023-05-20T07:47:49.218Z,5.20
2023-05-20T07:50:18.094Z,6.15
2023-05-20T07:52:55.865Z,4.88
2023-05-20T07:55:23.818Z,5.82
2023-05-20T07:57:50.761Z,6.18
2023-05-20T08:00:17.580Z,4.13
2023-05-20T08:02:44.544Z,6.90
2023-05-20T08:05:11.687Z,4.00
2023-05-20T08:07:38.264Z,5.00
2023-05-20T08:10:05.263Z,5.47
2023-05-20T08:12:34.366Z,6.07
2023-05-20T08:15:00.951Z,6.93
2023-05-20T08:17:27.620Z,6.78
2023-05-20T08:19:56.689Z,5.13
2023-05-20T08:22:26.552Z,4.43
2023-05-20T08:24:53.339Z,4.13
2023-05-20T08:27:20.277Z,5.28
2023-05-20T08:29:46.988Z,4.15
2023-05-20T08:32:13.655Z,5.05
2023-05-20T08:34:40.613Z,2.67
2023-05-20T08:37:07.533Z,4.43
2023-05-20T08:39:34.225Z,4.47
2023-05-20T08:42:01.240Z,7.32
2023-05-20T08:44:28.405Z,3.95
2023-05-20T08:46:57.013Z,5.43
2023-05-20T08:49:23.743Z,5.35
2023-05-20T08:51:53.121Z,7.68
2023-05-20T08:54:21.666Z,7.05
2023-05-20T08:56:48.438Z,3.65
2023-05-20T08:59:15.383Z,7.25
2023-05-20T09:01:45.618Z,3.85
2023-05-20T09:04:14.574Z,6.97
2023-05-20T09:06:45.381Z,6.97
2023-05-20T09:09:13.344Z,6.80
2023-05-20T09:11:41.540Z,5.05
2023-05-20T09:14:08.813Z,5.20
2023-05-20T09:16:36.031Z,4.70
2023-05-20T09:19:06.385Z,5.97
2023-05-20T09:21:33.210Z,5.78
2023-05-20T09:24:02.756Z,7.47
2023-05-20T09:26:33.003Z,6.85
2023-05-20T09:29:03.093Z,9.80
2023-05-20T09:31:35.788Z,6.25
2023-05-20T09:34:03.705Z,4.25
2023-05-20T09:36:32.016Z,5.13
2023-05-20T09:39:03.374Z,8.68
2023-05-20T09:41:45.135Z,8.88
2023-05-20T09:44:12.956Z,8.40
2023-05-20T09:46:46.933Z,8.43
2023-05-20T09:49:17.533Z,4.88
2023-05-20T09:51:45.477Z,5.70
2023-05-20T09:54:13.905Z,8.85
2023-05-20T09:56:44.229Z,7.68
2023-05-20T09:59:11.807Z,7.00
2023-05-20T10:01:38.459Z,3.90
2023-05-20T10:04:07.940Z,5.55
2023-05-20T10:06:43.690Z,3.80
2023-05-20T10:09:36.645Z,4.80
2023-05-20T10:12:28.450Z,4.47
2023-05-20T10:15:24.923Z,3.75
2023-05-20T10:18:10.118Z,6.70
2023-05-20T10:20:50.923Z,4.05
2023-05-20T10:23:27.826Z,5.38
2023-05-20T10:25:57.660Z,3.25
2023-05-20T10:28:40.464Z,8.60
2023-05-20T10:31:23.470Z,3.88
2023-05-20T10:33:53.723Z,6.30
2023-05-20T10:36:28.058Z,5.03
2023-05-20T10:38:59.489Z,3.22
2023-05-20T10:41:28.370Z,3.92
2023-05-20T10:44:06.286Z,7.15
2023-05-20T10:46:48.633Z,7.03
2023-05-20T10:49:27.149Z,5.80
2023-05-20T10:51:55.268Z,3.78
2023-05-20T10:54:23.649Z,4.00
2023-05-20T10:56:54.844Z,4.03
2023-05-20T10:59:22.642Z,5.90
2023-05-20T11:01:50.076Z,3.75
2023-05-20T11:04:19.944Z,6.90
2023-05-20T11:06:54.617Z,6.47
2023-05-20T11:09:22.159Z,10.55
2023-05-20T11:11:55.850Z,8.63
2023-05-20T11:14:22.675Z,4.68
2023-05-20T11:16:54.372Z,7.28
2023-05-20T11:19:24.585Z,6.07
2023-05-20T11:21:51.721Z,3.33
2023-05-20T11:24:27.235Z,4.25
2023-05-20T11:26:58.154Z,7.28
2023-05-20T11:29:29.279Z,5.72
2023-05-20T11:32:00.431Z,5.60
2023-05-20T11:34:36.577Z,6.82
2023-05-20T11:37:08.318Z,3.45
2023-05-20T11:39:35.096Z,4.95
2023-05-20T11:42:01.877Z,4.47
2023-05-20T11:44:28.506Z,2.63
2023-05-20T11:47:00.765Z,6.03
2023-05-20T11:49:28.223Z,3.08
2023-05-20T11:51:55.526Z,5.35
2023-05-20T11:54:24.180Z,10.50
2023-05-20T11:56:50.958Z,3.53
2023-05-20T11:59:17.626Z,2.83
2023-05-20T12:01:44.491Z,5.07
2023-05-20T12:04:13.417Z,3.97
2023-05-20T12:06:40.315Z,4.10
2023-05-20T12:09:10.055Z,3.28
2023-05-20T12:11:39.766Z,5.63
2023-05-20T12:14:07.000Z,4.80
2023-05-20T12:16:38.128Z,3.38
2023-05-20T12:19:05.526Z,3.95
2023-05-20T12:21:34.983Z,4.82
2023-05-20T12:24:06.883Z,3.95
2023-05-20T12:26:35.281Z,5.63
2023-05-20T12:29:01.924Z,2.30
2023-05-20T12:31:28.512Z,5.25
2023-05-20T12:33:57.820Z,3.20
2023-05-20T12:36:24.621Z,8.32
2023-05-20T12:38:51.407Z,3.53
2023-05-20T12:41:18.390Z,2.10
2023-05-20T12:43:45.026Z,4.30
2023-05-20T12:46:11.686Z,4.88
2023-05-20T12:48:43.155Z,5.28
2023-05-20T12:51:09.790Z,3.92
2023-05-20T12:53:36.571Z,4.40
2023-05-20T12:56:04.592Z,3.13
2023-05-20T12:58:32.610Z,6.20
2023-05-20T13:00:59.225Z,4.10
2023-05-20T13:03:26.033Z,2.65
2023-05-20T13:05:52.706Z,7.65
2023-05-20T13:08:19.638Z,9.05
2023-05-20T13:10:46.289Z,4.93
2023-05-20T13:13:21.405Z,4.45
2023-05-20T13:15:51.774Z,2.35
2023-05-20T13:18:19.265Z,5.32
2023-05-20T13:20:46.263Z,4.43
2023-05-20T13:23:12.994Z,2.35
2023-05-20T13:25:39.641Z,5.78
2023-05-20T13:28:06.603Z,3.13
2023-05-20T13:30:33.676Z,3.22
2023-05-20T13:33:00.533Z,2.83
2023-05-20T13:35:27.371Z,7.03
2023-05-20T13:37:54.044Z,2.28
2023-05-20T13:40:20.795Z,3.72
2023-05-20T13:42:47.436Z,3.10
2023-05-20T13:45:14.138Z,2.83
2023-05-20T13:47:40.794Z,6.32
2023-05-20T13:50:08.253Z,4.72
2023-05-20T13:52:35.278Z,4.28
2023-05-20T13:55:02.058Z,7.57
2023-05-20T13:57:28.840Z,2.90
2023-05-20T13:59:57.775Z,4.88
2023-05-20T14:02:24.587Z,3.67
2023-05-20T14:04:51.375Z,3.00
2023-05-20T14:07:18.102Z,2.58
2023-05-20T14:09:45.946Z,4.40
2023-05-20T14:12:12.916Z,3.85
2023-05-20T14:14:39.551Z,3.50
2023-05-20T14:17:06.185Z,4.22
2023-05-20T14:19:36.425Z,5.63
2023-05-20T14:22:03.395Z,2.58
2023-05-20T14:24:30.026Z,7.47
2023-05-20T14:26:56.826Z,4.47
2023-05-20T14:29:23.582Z,3.20
2023-05-20T14:31:50.250Z,3.63
2023-05-20T14:34:17.054Z,3.30
2023-05-20T14:36:44.563Z,4.60
2023-05-20T14:39:13.541Z,2.28
2023-05-20T14:41:42.539Z,4.13
2023-05-20T14:44:09.235Z,6.72
2023-05-20T14:46:36.131Z,3.85
2023-05-20T14:49:02.827Z,4.28
2023-05-20T14:51:29.486Z,3.95
2023-05-20T14:53:58.856Z,3.95
2023-05-20T14:56:27.915Z,3.13
2023-05-20T14:58:57.062Z,5.43
2023-05-20T15:01:23.763Z,4.65
2023-05-20T15:03:53.499Z,2.85
2023-05-20T15:06:20.330Z,3.00
2023-05-20T15:08:47.597Z,2.88
2023-05-20T15:11:16.532Z,4.63
2023-05-20T15:13:44.238Z,3.15
2023-05-20T15:16:11.135Z,2.85
2023-05-20T15:18:38.024Z,4.88
2023-05-20T15:21:05.876Z,2.83
2023-05-20T15:23:34.717Z,4.80
2023-05-20T15:26:03.658Z,3.53
2023-05-20T15:28:30.244Z,4.55
2023-05-20T15:30:57.221Z,4.30
2023-05-20T15:33:23.907Z,5.28
2023-05-20T15:35:50.624Z,6.15
2023-05-20T15:38:19.681Z,2.75
2023-05-20T15:40:47.456Z,4.97
2023-05-20T15:43:14.107Z,3.28
2023-05-20T15:45:40.839Z,4.22
2023-05-20T15:48:10.150Z,3.60
2023-05-20T15:50:37.423Z,6.70
2023-05-20T15:53:08.185Z,6.63
2023-05-20T15:55:35.850Z,4.55
2023-05-20T15:58:03.010Z,4.13
2023-05-20T16:00:29.943Z,7.28
2023-05-20T16:02:56.796Z,3.67
2023-05-20T16:05:26.881Z,2.97
2023-05-20T16:07:53.577Z,3.90
2023-05-20T16:10:20.594Z,4.00
2023-05-20T16:12:47.613Z,6.07
2023-05-20T16:15:14.334Z,2.38
2023-05-20T16:17:44.677Z,3.63
2023-05-20T16:20:12.534Z,3.45
2023-05-20T16:22:39.230Z,6.65
2023-05-20T16:25:06.403Z,4.55
2023-05-20T16:27:33.208Z,12.95
2023-05-20T16:30:00.280Z,7.35
2023-05-20T16:32:27.246Z,2.65
2023-05-20T16:34:54.857Z,4.13
2023-05-20T16:37:21.530Z,3.75
2023-05-20T16:39:48.323Z,3.60
2023-05-20T16:42:15.250Z,3.25
2023-05-20T16:44:41.983Z,5.57
2023-05-20T16:47:11.414Z,4.75
2023-05-20T16:49:38.090Z,8.35
2023-05-20T16:52:05.235Z,2.03
2023-05-20T16:54:32.783Z,1.77
2023-05-20T16:56:59.424Z,5.50
2023-05-20T16:59:28.620Z,11.20
2023-05-20T17:01:55.336Z,5.80
2023-05-20T17:04:22.293Z,2.38
2023-05-20T17:06:50.309Z,2.92
2023-05-20T17:09:17.134Z,5.53
2023-05-20T17:11:44.452Z,7.63
2023-05-20T17:14:11.237Z,4.55
2023-05-20T17:16:37.999Z,4.97
2023-05-20T17:19:06.964Z,7.05
2023-05-20T17:21:34.744Z,7.75
2023-05-20T17:24:05.044Z,7.30
2023-05-20T17:26:35.074Z,4.30
2023-05-20T17:29:03.979Z,3.50
2023-05-20T17:31:30.646Z,9.48
2023-05-20T17:33:57.383Z,4.10
2023-05-20T17:36:24.222Z,12.73
2023-05-20T17:38:51.534Z,4.15
2023-05-20T17:41:19.076Z,2.97
2023-05-20T17:43:46.233Z,3.90
2023-05-20T17:46:13.547Z,6.57
2023-05-20T17:48:45.890Z,3.83
2023-05-20T17:51:13.386Z,6.30
2023-05-20T17:53:39.950Z,4.40
2023-05-20T17:56:06.847Z,2.05
2023-05-20T17:58:33.870Z,4.63
2023-05-20T18:01:00.563Z,6.07
2023-05-20T18:03:27.910Z,3.97
2023-05-20T18:05:56.383Z,3.75
2023-05-20T18:08:25.439Z,3.63
2023-05-20T18:10:53.525Z,2.47
2023-05-20T18:13:22.726Z,1.98
2023-05-20T18:15:49.378Z,2.42
2023-05-20T18:18:16.094Z,2.30
2023-05-20T18:20:45.024Z,4.60
2023-05-20T18:23:14.029Z,2.90
2023-05-20T18:25:42.561Z,3.55
2023-05-20T18:28:09.813Z,4.78
2023-05-20T18:30:36.907Z,2.95
2023-05-20T18:33:03.861Z,4.78
2023-05-20T18:35:31.120Z,2.88
2023-05-20T18:37:57.968Z,5.93
2023-05-20T18:40:25.367Z,4.50
2023-05-20T18:42:52.011Z,4.38
2023-05-20T18:45:21.948Z,3.15
2023-05-20T18:47:48.954Z,3.75
2023-05-20T18:50:16.214Z,3.42
2023-05-20T18:52:42.930Z,2.58
2023-05-20T18:55:09.793Z,5.57
2023-05-20T18:57:36.382Z,2.72
2023-05-20T19:00:04.723Z,4.40
2023-05-20T19:02:31.503Z,3.35
2023-05-20T19:05:00.199Z,2.22
2023-05-20T19:07:29.110Z,3.05
2023-05-20T19:09:56.957Z,3.30
2023-05-20T19:12:25.933Z,2.38
2023-05-20T19:14:55.031Z,6.10
2023-05-20T19:17:21.908Z,3.70
2023-05-20T19:19:48.945Z,4.57
2023-05-20T19:22:17.832Z,3.58
2023-05-20T19:24:44.676Z,2.65
2023-05-20T19:27:11.398Z,2.38
2023-05-20T19:29:38.102Z,2.67
2023-05-20T19:32:05.021Z,3.63
2023-05-20T19:34:31.713Z,5.35
2023-05-20T19:36:58.533Z,5.72
2023-05-20T19:39:25.667Z,4.88
2023-05-20T19:41:53.487Z,3.65
2023-05-20T19:44:20.168Z,3.70
2023-05-20T19:46:47.849Z,6.70
2023-05-20T19:49:14.719Z,6.30
2023-05-20T19:51:41.817Z,5.68
2023-05-20T19:54:10.878Z,2.38
2023-05-20T19:56:40.105Z,5.15
2023-05-20T19:59:09.390Z,3.65
2023-05-20T20:01:36.404Z,5.00
2023-05-20T20:04:03.605Z,4.57
2023-05-20T20:06:30.483Z,3.53
2023-05-20T20:08:57.610Z,4.63
2023-05-20T20:11:24.673Z,4.32
2023-05-20T20:13:51.673Z,4.72
2023-05-20T20:16:18.494Z,3.83
2023-05-20T20:18:45.340Z,5.00
2023-05-20T20:21:15.171Z,4.32
2023-05-20T20:23:43.454Z,4.30
2023-05-20T20:26:13.837Z,6.10
2023-05-20T20:28:40.750Z,6.90
2023-05-20T20:31:07.652Z,5.63
2023-05-20T20:33:34.563Z,6.38
2023-05-20T20:36:02.562Z,4.00
2023-05-20T20:38:29.404Z,2.83
2023-05-20T20:40:56.456Z,5.53
2023-05-20T20:43:28.799Z,2.80
2023-05-20T20:45:56.978Z,7.15
2023-05-20T20:48:27.285Z,3.30
2023-05-20T20:50:54.578Z,4.40
2023-05-20T20:53:21.970Z,4.78
2023-05-20T20:55:51.236Z,3.83
2023-05-20T20:58:18.362Z,4.65
2023-05-20T21:00:48.889Z,5.85
2023-05-20T21:03:16.032Z,3.20
2023-05-20T21:05:42.907Z,3.00
2023-05-20T21:08:10.069Z,3.58
2023-05-20T21:10:38.301Z,5.22
2023-05-20T21:13:05.448Z,7.97
2023-05-20T21:15:32.223Z,3.50
2023-05-20T21:18:01.162Z,3.50
2023-05-20T21:20:28.283Z,4.03
2023-05-20T21:22:55.196Z,6.10
2023-05-20T21:25:22.075Z,3.40
2023-05-20T21:27:48.864Z,2.97
2023-05-20T21:30:16.564Z,2.78
2023-05-20T21:32:43.674Z,3.47
2023-05-20T21:35:10.688Z,5.45
2023-05-20T21:37:37.531Z,2.58
2023-05-20T21:40:05.003Z,3.35
2023-05-20T21:42:34.241Z,3.05
2023-05-20T21:45:01.283Z,3.17
2023-05-20T21:47:33.270Z,6.53
2023-05-20T21:50:00.622Z,6.60
2023-05-20T21:52:30.049Z,2.85
2023-05-20T21:55:04.075Z,5.00
2023-05-20T21:57:32.937Z,3.10
2023-05-20T22:00:01.073Z,4.03
2023-05-20T22:02:28.149Z,5.18
2023-05-20T22:05:01.342Z,5.07
2023-05-20T22:07:28.244Z,4.28
2023-05-20T22:09:54.987Z,3.25
2023-05-20T22:12:22.044Z,4.07
2023-05-20T22:14:54.078Z,7.25
2023-05-20T22:17:21.760Z,4.05
2023-05-20T22:19:50.000Z,2.78
2023-05-20T22:22:17.161Z,3.90
2023-05-20T22:24:48.280Z,5.88
2023-05-20T22:27:15.207Z,5.57
2023-05-20T22:29:44.699Z,6.38
2023-05-20T22:32:11.555Z,4.43
2023-05-20T22:34:39.391Z,4.90
2023-05-20T22:37:09.295Z,3.10
2023-05-20T22:39:36.586Z,4.93
2023-05-20T22:42:03.476Z,3.88
2023-05-20T22:44:30.340Z,4.85
2023-05-20T22:46:57.343Z,3.53
2023-05-20T22:49:25.154Z,5.70
2023-05-20T22:51:53.137Z,3.83
2023-05-20T22:54:24.563Z,6.10
2023-05-20T22:56:58.256Z,6.53
2023-05-20T22:59:26.110Z,4.45
2023-05-20T23:01:53.382Z,3.90
2023-05-20T23:04:20.231Z,8.15
2023-05-20T23:06:47.192Z,7.40
2023-05-20T23:09:14.220Z,3.90
2023-05-20T23:11:40.911Z,7.32
2023-05-20T23:14:07.829Z,6.03
2023-05-20T23:16:36.408Z,4.60
2023-05-20T23:19:03.599Z,5.03
2023-05-20T23:21:31.888Z,4.00
2023-05-20T23:24:01.355Z,5.55
2023-05-20T23:26:30.046Z,4.22
2023-05-20T23:28:56.910Z,4.50
2023-05-20T23:31:23.765Z,4.30
2023-05-20T23:33:50.642Z,5.20
2023-05-20T23:36:17.690Z,4.25
2023-05-20T23:38:44.980Z,4.85
2023-05-20T23:41:11.903Z,6.57
2023-05-20T23:43:41.296Z,5.43
2023-05-20T23:46:08.258Z,3.97
2023-05-20T23:48:36.159Z,5.72
2023-05-20T23:51:05.608Z,6.30
2023-05-20T23:53:32.646Z,8.45
2023-05-20T23:55:59.334Z,7.00
2023-05-20T23:58:26.330Z,6.97
